createdAt,value
2022-11-01T00:00:49.881Z,43.95
2022-11-01T00:03:19.676Z,43.50
2022-11-01T00:05:49.457Z,47.30
2022-11-01T00:08:19.369Z,49.72
2022-11-01T00:10:49.526Z,49.15
2022-11-01T00:13:19.547Z,47.83
2022-11-01T00:15:49.325Z,47.85
2022-11-01T00:18:19.051Z,49.92
2022-11-01T00:20:48.763Z,49.33
2022-11-01T00:23:19.348Z,47.15
2022-11-01T00:25:49.112Z,47.45
2022-11-01T00:28:19.058Z,46.53
2022-11-01T00:30:54.574Z,48.00
2022-11-01T00:33:25.935Z,50.53
2022-11-01T00:35:54.501Z,47.17
2022-11-01T00:38:24.304Z,44.30
2022-11-01T00:40:53.985Z,43.88
2022-11-01T00:43:24.296Z,44.50
2022-11-01T00:45:54.297Z,41.95
2022-11-01T00:48:24.418Z,41.92
2022-11-01T00:50:54.909Z,39.90
2022-11-01T00:53:24.731Z,39.33
2022-11-01T00:56:02.374Z,35.90
2022-11-01T00:58:32.281Z,35.72
2022-11-01T01:01:03.062Z,38.47
2022-11-01T01:03:32.484Z,38.33
2022-11-01T01:06:02.596Z,39.08
2022-11-01T01:08:32.713Z,39.53
2022-11-01T01:11:02.506Z,43.25
2022-11-01T01:13:32.403Z,42.03
2022-11-01T01:16:09.741Z,44.58
2022-11-01T01:18:40.820Z,42.28
2022-11-01T01:21:10.248Z,39.30
2022-11-01T01:23:40.035Z,42.08
2022-11-01T01:26:11.766Z,43.10
2022-11-01T01:28:43.788Z,45.15
2022-11-01T01:31:14.917Z,43.58
2022-11-01T01:33:44.705Z,45.33
2022-11-01T01:36:15.577Z,43.67
2022-11-01T01:38:44.667Z,43.22
2022-11-01T01:41:32.937Z,40.17
2022-11-01T01:44:03.633Z,41.30
2022-11-01T01:46:33.632Z,38.50
2022-11-01T01:49:03.309Z,36.80
2022-11-01T01:51:33.175Z,35.80
2022-11-01T01:54:02.959Z,34.65
2022-11-01T01:56:37.881Z,34.20
2022-11-01T01:59:11.159Z,32.45
2022-11-01T02:01:42.173Z,32.30
2022-11-01T02:04:50.925Z,31.60
2022-11-01T02:07:19.677Z,33.00
2022-11-01T02:09:49.764Z,33.25
2022-11-01T02:12:19.930Z,34.25
2022-11-01T02:14:49.481Z,31.42
2022-11-01T02:18:17.419Z,33.25
2022-11-01T02:21:28.932Z,30.02
2022-11-01T02:24:46.711Z,30.55
2022-11-01T02:28:01.158Z,31.23
2022-11-01T02:31:30.097Z,29.70
2022-11-01T02:34:59.056Z,31.23
2022-11-01T02:38:33.758Z,31.40
2022-11-01T02:41:25.549Z,33.60
2022-11-01T02:44:25.175Z,32.97
2022-11-01T02:47:02.808Z,32.58
2022-11-01T02:49:47.767Z,35.97
2022-11-01T02:52:28.434Z,37.67
2022-11-01T02:55:07.305Z,39.05
2022-11-01T02:57:41.594Z,42.13
2022-11-01T03:00:36.217Z,39.22
2022-11-01T03:03:36.268Z,36.03
2022-11-01T03:06:08.948Z,33.55
2022-11-01T03:08:59.262Z,35.20
2022-11-01T03:12:01.788Z,39.85
2022-11-01T03:15:01.296Z,38.38
2022-11-01T03:17:59.377Z,37.60
2022-11-01T03:20:49.274Z,39.40
2022-11-01T03:23:45.930Z,35.22
2022-11-01T03:26:28.843Z,40.65
2022-11-01T03:29:09.250Z,36.40
2022-11-01T03:31:44.244Z,36.47
2022-11-01T03:34:20.433Z,33.03
2022-11-01T03:37:01.159Z,32.90
2022-11-01T03:39:48.321Z,32.30
2022-11-01T03:42:24.906Z,33.83
2022-11-01T03:45:09.403Z,35.05
2022-11-01T03:47:39.587Z,33.50
2022-11-01T03:50:24.513Z,34.25
2022-11-01T03:52:55.953Z,32.47
2022-11-01T03:55:26.617Z,33.33
2022-11-01T03:58:00.664Z,33.40
2022-11-01T04:00:38.272Z,31.88
2022-11-01T04:03:11.055Z,36.47
2022-11-01T04:05:43.080Z,32.25
2022-11-01T04:08:13.128Z,34.85
2022-11-01T04:10:44.832Z,31.90
2022-11-01T04:13:14.951Z,33.28
2022-11-01T04:16:03.647Z,34.78
2022-11-01T04:18:52.364Z,35.85
2022-11-01T04:21:26.568Z,35.80
2022-11-01T04:23:56.656Z,34.83
2022-11-01T04:26:27.288Z,35.92
2022-11-01T04:28:57.783Z,34.63
2022-11-01T04:31:36.824Z,33.28
2022-11-01T04:34:06.810Z,35.63
2022-11-01T04:36:38.495Z,34.97
2022-11-01T04:39:09.343Z,40.05
2022-11-01T04:41:39.501Z,40.20
2022-11-01T04:44:09.526Z,37.80
2022-11-01T04:46:39.524Z,40.63
2022-11-01T04:49:09.628Z,40.35
2022-11-01T04:51:41.598Z,37.97
2022-11-01T04:54:11.823Z,38.33
2022-11-01T04:56:41.825Z,39.90
2022-11-01T04:59:11.839Z,38.20
2022-11-01T05:01:41.983Z,40.88
2022-11-01T05:04:12.106Z,39.97
2022-11-01T05:06:42.177Z,41.03
2022-11-01T05:09:12.181Z,39.70
2022-11-01T05:11:42.175Z,39.65
2022-11-01T05:14:12.308Z,38.75
2022-11-01T05:16:42.328Z,39.58
2022-11-01T05:19:12.403Z,41.08
2022-11-01T05:21:42.509Z,40.33
2022-11-01T05:24:12.511Z,42.33
2022-11-01T05:26:44.854Z,42.25
2022-11-01T05:32:05.126Z,40.97
2022-11-01T05:34:35.131Z,41.45
2022-11-01T05:37:05.139Z,41.00
2022-11-01T05:39:35.211Z,41.42
2022-11-01T05:42:09.628Z,38.50
2022-11-01T05:44:39.961Z,40.72
2022-11-01T05:47:12.218Z,40.08
2022-11-01T05:49:46.272Z,41.60
2022-11-01T05:52:16.271Z,40.05
2022-11-01T05:54:46.298Z,40.80
2022-11-01T05:57:16.306Z,39.42
2022-11-01T05:59:46.314Z,40.78
2022-11-01T06:02:16.515Z,39.95
2022-11-01T06:04:46.564Z,39.65
2022-11-01T06:07:16.824Z,40.03
2022-11-01T06:09:49.540Z,39.65
2022-11-01T06:12:19.863Z,38.70
2022-11-01T06:14:49.861Z,39.72
2022-11-01T06:17:19.952Z,39.60
2022-11-01T06:19:49.982Z,39.55
2022-11-01T06:22:20.014Z,39.92
2022-11-01T06:24:52.579Z,39.42
2022-11-01T06:27:22.610Z,38.00
2022-11-01T06:29:52.616Z,39.05
2022-11-01T06:32:23.243Z,37.83
2022-11-01T06:34:53.380Z,41.10
2022-11-01T06:37:23.434Z,39.42
2022-11-01T06:39:53.443Z,39.72
2022-11-01T06:42:25.086Z,37.53
2022-11-01T06:44:55.083Z,38.47
2022-11-01T06:47:25.849Z,38.83
2022-11-01T06:49:55.966Z,37.03
2022-11-01T06:52:26.026Z,37.13
2022-11-01T06:54:56.118Z,38.17
2022-11-01T06:57:27.350Z,36.30
2022-11-01T06:59:58.482Z,37.22
2022-11-01T07:02:29.905Z,37.85
2022-11-01T07:05:00.337Z,36.03
2022-11-01T07:07:30.335Z,36.45
2022-11-01T07:10:01.313Z,35.40
2022-11-01T07:12:31.355Z,34.47
2022-11-01T07:15:01.950Z,36.22
2022-11-01T07:17:31.993Z,33.47
2022-11-01T07:20:02.072Z,36.03
2022-11-01T07:22:32.070Z,35.72
2022-11-01T07:25:02.110Z,34.90
2022-11-01T07:27:35.902Z,35.28
2022-11-01T07:30:07.869Z,35.13
2022-11-01T07:32:39.027Z,37.00
2022-11-01T07:35:10.496Z,36.08
2022-11-01T07:37:41.061Z,35.30
2022-11-01T07:40:13.115Z,35.28
2022-11-01T07:42:45.945Z,31.10
2022-11-01T07:45:17.469Z,34.25
2022-11-01T07:47:48.017Z,32.42
2022-11-01T07:50:19.488Z,32.60
2022-11-01T07:52:59.507Z,32.80
2022-11-01T07:55:29.661Z,32.33
2022-11-01T07:57:59.914Z,33.60
2022-11-01T08:00:30.643Z,33.60
2022-11-01T08:03:17.462Z,31.98
2022-11-01T08:05:48.991Z,32.80
2022-11-01T08:08:21.986Z,31.55
2022-11-01T08:10:52.052Z,31.77
2022-11-01T08:13:26.670Z,31.23
2022-11-01T08:16:00.121Z,30.40
2022-11-01T08:18:30.455Z,29.88
2022-11-01T08:21:00.502Z,30.02
2022-11-01T08:23:30.500Z,29.00
2022-11-01T08:26:00.572Z,28.85
2022-11-01T08:28:30.727Z,27.58
2022-11-01T08:31:10.590Z,28.30
2022-11-01T08:33:40.598Z,27.80
2022-11-01T08:36:10.608Z,26.80
2022-11-01T08:38:40.639Z,26.27
2022-11-01T08:41:10.653Z,25.13
2022-11-01T08:43:40.975Z,24.67
2022-11-01T08:46:11.097Z,24.60
2022-11-01T08:48:41.150Z,22.95
2022-11-01T08:51:11.175Z,24.73
2022-11-01T08:53:41.200Z,23.13
2022-11-01T08:56:11.899Z,22.27
2022-11-01T08:58:42.034Z,23.33
2022-11-01T09:01:12.792Z,22.25
2022-11-01T09:03:42.997Z,21.48
2022-11-01T09:06:14.405Z,22.15
2022-11-01T09:08:44.528Z,22.17
2022-11-01T09:11:14.622Z,20.00
2022-11-01T09:13:44.796Z,20.60
2022-11-01T09:16:15.118Z,19.70
2022-11-01T09:18:45.781Z,18.45
2022-11-01T09:21:17.251Z,19.80
2022-11-01T09:23:47.548Z,18.08
2022-11-01T09:26:17.814Z,17.58
2022-11-01T09:28:47.892Z,18.73
2022-11-01T09:31:21.766Z,18.67
2022-11-01T09:33:57.361Z,18.23
2022-11-01T09:36:29.882Z,17.15
2022-11-01T09:39:00.026Z,17.65
2022-11-01T09:42:02.005Z,16.80
2022-11-01T09:44:49.929Z,18.55
2022-11-01T09:47:30.317Z,18.15
2022-11-01T09:53:00.039Z,17.13
2022-11-01T09:56:10.408Z,17.60
2022-11-01T09:59:24.572Z,17.85
2022-11-01T10:02:50.309Z,18.17
2022-11-01T10:05:58.577Z,16.58
2022-11-01T10:09:22.342Z,17.50
2022-11-01T10:12:41.547Z,17.60
2022-11-01T10:15:22.917Z,16.42
2022-11-01T10:18:06.145Z,15.68
2022-11-01T10:20:41.692Z,15.25
2022-11-01T10:23:24.725Z,16.13
2022-11-01T10:25:55.003Z,16.15
2022-11-01T10:28:46.439Z,13.43
2022-11-01T10:31:24.749Z,14.93
2022-11-01T10:34:20.808Z,14.05
2022-11-01T10:37:01.122Z,12.48
2022-11-01T10:39:57.949Z,13.00
2022-11-01T10:42:34.073Z,13.25
2022-11-01T10:45:15.785Z,15.25
2022-11-01T10:47:58.467Z,12.32
2022-11-01T10:50:31.055Z,12.57
2022-11-01T10:53:13.431Z,12.63
2022-11-01T10:55:57.747Z,12.20
2022-11-01T10:59:10.514Z,11.57
2022-11-01T11:01:45.168Z,10.95
2022-11-01T11:04:23.520Z,11.65
2022-11-01T11:06:53.807Z,10.48
2022-11-01T11:09:31.145Z,10.38
2022-11-01T11:12:20.164Z,8.80
2022-11-01T11:15:04.096Z,9.20
2022-11-01T11:17:45.048Z,8.98
2022-11-01T11:20:26.476Z,7.80
2022-11-01T11:23:03.081Z,8.68
2022-11-01T11:25:37.428Z,8.43
2022-11-01T11:28:32.938Z,7.53
2022-11-01T11:31:31.901Z,8.88
2022-11-01T11:34:35.388Z,8.63
2022-11-01T11:37:21.669Z,8.90
2022-11-01T11:40:15.932Z,8.00
2022-11-01T11:42:54.175Z,8.50
2022-11-01T11:45:31.308Z,7.35
2022-11-01T11:48:24.083Z,6.97
2022-11-01T11:51:05.769Z,7.13
2022-11-01T11:53:35.837Z,6.95
2022-11-01T11:56:09.372Z,7.20
2022-11-01T11:58:48.724Z,7.55
2022-11-01T12:01:26.829Z,7.43
2022-11-01T12:04:12.186Z,8.25
2022-11-01T12:06:46.996Z,8.25
2022-11-01T12:09:48.113Z,8.48
2022-11-01T12:12:27.208Z,8.48
2022-11-01T12:15:00.535Z,9.32
2022-11-01T12:17:47.119Z,8.20
2022-11-01T12:20:26.790Z,8.40
2022-11-01T12:23:21.686Z,8.23
2022-11-01T12:25:54.386Z,8.77
2022-11-01T12:28:48.243Z,8.35
2022-11-01T12:31:22.253Z,8.55
2022-11-01T12:34:25.985Z,8.75
2022-11-01T12:37:31.604Z,9.07
2022-11-01T12:40:26.815Z,8.82
2022-11-01T12:43:21.351Z,8.52
2022-11-01T12:45:59.788Z,10.05
2022-11-01T12:51:27.058Z,8.70
2022-11-01T12:54:12.229Z,9.27
2022-11-01T12:56:45.081Z,10.57
2022-11-01T12:59:34.099Z,9.52
2022-11-01T13:02:49.466Z,8.00
2022-11-01T13:05:45.031Z,8.55
2022-11-01T13:08:59.187Z,8.45
2022-11-01T13:12:10.090Z,8.68
2022-11-01T13:14:55.358Z,7.35
2022-11-01T13:18:28.254Z,7.47
2022-11-01T13:21:34.562Z,7.85
2022-11-01T13:24:35.660Z,7.15
2022-11-01T13:27:30.922Z,7.90
2022-11-01T13:30:14.922Z,7.65
2022-11-01T13:33:39.310Z,7.90
2022-11-01T13:37:06.109Z,7.75
2022-11-01T13:40:12.651Z,7.95
2022-11-01T13:43:11.854Z,7.05
2022-11-01T13:46:03.296Z,6.82
2022-11-01T13:48:57.307Z,7.40
2022-11-01T13:52:03.152Z,6.95
2022-11-01T13:55:15.946Z,7.25
2022-11-01T13:57:46.846Z,7.20
2022-11-01T14:00:52.515Z,6.90
2022-11-01T14:03:29.745Z,6.90
2022-11-01T14:06:08.381Z,7.35
2022-11-01T14:08:48.472Z,8.35
2022-11-01T14:11:51.070Z,6.53
2022-11-01T14:14:29.875Z,7.35
2022-11-01T14:17:18.952Z,6.97
2022-11-01T14:22:33.763Z,7.18
2022-11-01T14:25:23.600Z,6.72
2022-11-01T14:28:18.368Z,7.28
2022-11-01T14:30:53.438Z,7.40
2022-11-01T14:33:23.954Z,7.15
2022-11-01T14:35:58.550Z,6.70
2022-11-01T14:39:00.798Z,6.65
2022-11-01T14:41:41.118Z,7.32
2022-11-01T14:44:34.899Z,6.45
2022-11-01T14:47:43.812Z,6.57
2022-11-01T14:50:46.083Z,7.25
2022-11-01T14:53:41.422Z,7.15
2022-11-01T14:56:11.353Z,7.28
2022-11-01T14:58:41.627Z,7.10
2022-11-01T15:01:23.647Z,6.82
2022-11-01T15:04:00.462Z,6.97
2022-11-01T15:06:31.436Z,7.05
2022-11-01T15:09:04.270Z,7.35
2022-11-01T15:11:35.788Z,7.25
2022-11-01T15:14:09.015Z,8.07
2022-11-01T15:16:43.908Z,6.80
2022-11-01T15:19:28.022Z,7.38
2022-11-01T15:22:03.511Z,7.55
2022-11-01T15:24:35.487Z,6.57
2022-11-01T15:27:21.294Z,7.45
2022-11-01T15:29:51.817Z,7.75
2022-11-01T15:32:35.542Z,7.70
2022-11-01T15:35:26.753Z,7.43
2022-11-01T15:37:57.965Z,7.90
2022-11-01T15:40:37.258Z,7.43
2022-11-01T15:43:07.389Z,7.00
2022-11-01T15:45:38.780Z,7.30
2022-11-01T15:48:20.607Z,6.88
2022-11-01T15:51:03.335Z,8.23
2022-11-01T15:53:39.320Z,8.00
2022-11-01T15:56:22.950Z,8.50
2022-11-01T15:59:04.188Z,9.43
2022-11-01T16:01:34.606Z,9.75
2022-11-01T16:04:12.855Z,10.93
2022-11-01T16:07:01.958Z,11.13
2022-11-01T16:09:37.536Z,10.60
2022-11-01T16:12:24.198Z,9.10
2022-11-01T16:15:08.056Z,9.82
2022-11-01T16:17:42.344Z,9.80
2022-11-01T16:20:40.933Z,11.63
2022-11-01T16:23:28.891Z,10.75
2022-11-01T16:26:11.965Z,11.25
2022-11-01T16:28:46.453Z,11.45
2022-11-01T16:31:28.986Z,13.80
2022-11-01T16:33:58.934Z,12.85
2022-11-01T16:36:31.831Z,11.02
2022-11-01T16:39:02.334Z,10.35
2022-11-01T16:41:39.916Z,9.80
2022-11-01T16:44:16.296Z,9.98
2022-11-01T16:46:46.533Z,9.35
2022-11-01T16:49:31.882Z,10.00
2022-11-01T16:52:01.364Z,9.30
2022-11-01T16:54:31.346Z,10.38
2022-11-01T16:57:03.772Z,10.35
2022-11-01T16:59:35.613Z,10.75
2022-11-01T17:02:30.039Z,10.98
2022-11-01T17:05:21.223Z,11.27
2022-11-01T17:07:49.369Z,12.80
2022-11-01T17:10:25.738Z,12.57
2022-11-01T17:12:57.864Z,11.73
2022-11-01T17:15:29.294Z,10.73
2022-11-01T17:18:12.711Z,10.07
2022-11-01T17:20:46.520Z,10.93
2022-11-01T17:23:24.168Z,12.32
2022-11-01T17:25:56.210Z,11.07
2022-11-01T17:28:26.685Z,11.40
2022-11-01T17:30:57.637Z,12.30
2022-11-01T17:33:27.657Z,11.38
2022-11-01T17:36:00.850Z,11.65
2022-11-01T17:38:34.804Z,10.90
2022-11-01T17:41:11.001Z,11.50
2022-11-01T17:43:41.028Z,9.90
2022-11-01T17:46:24.195Z,12.98
2022-11-01T17:48:54.181Z,10.75
2022-11-01T17:51:24.297Z,8.88
2022-11-01T17:53:59.020Z,9.82
2022-11-01T17:56:29.370Z,9.85
2022-11-01T17:58:59.547Z,8.77
2022-11-01T18:01:30.557Z,10.82
2022-11-01T18:04:00.798Z,10.02
2022-11-01T18:06:30.795Z,10.25
2022-11-01T18:09:00.897Z,8.70
2022-11-01T18:12:33.321Z,8.05
2022-11-01T18:15:42.849Z,9.30
2022-11-01T18:18:53.746Z,8.93
2022-11-01T18:24:18.377Z,7.78
2022-11-01T18:26:51.623Z,7.93
2022-11-01T18:29:23.696Z,8.93
2022-11-01T18:32:26.049Z,8.82
2022-11-01T18:36:11.948Z,7.43
2022-11-01T18:38:59.358Z,8.00
2022-11-01T18:41:27.516Z,8.73
2022-11-01T18:43:57.880Z,8.50
2022-11-01T18:46:50.471Z,8.27
2022-11-01T18:49:28.266Z,8.75
2022-11-01T18:51:58.842Z,9.00
2022-11-01T18:54:33.142Z,8.02
2022-11-01T18:57:17.382Z,8.63
2022-11-01T18:59:52.983Z,8.50
2022-11-01T19:02:31.230Z,8.50
2022-11-01T19:05:20.169Z,8.82
2022-11-01T19:08:11.295Z,10.02
2022-11-01T19:10:42.430Z,8.90
2022-11-01T19:13:31.637Z,8.98
2022-11-01T19:16:03.129Z,9.02
2022-11-01T19:18:36.119Z,10.13
2022-11-01T19:21:18.875Z,10.25
2022-11-01T19:23:56.410Z,9.95
2022-11-01T19:26:36.708Z,9.65
2022-11-01T19:29:20.243Z,9.93
2022-11-01T19:32:02.410Z,10.35
2022-11-01T19:34:40.786Z,9.93
2022-11-01T19:37:33.044Z,9.57
2022-11-01T19:40:27.970Z,12.20
2022-11-01T19:43:12.677Z,9.90
2022-11-01T19:45:56.263Z,10.32
2022-11-01T19:48:30.710Z,9.52
2022-11-01T19:51:00.141Z,9.65
2022-11-01T19:53:37.942Z,9.73
2022-11-01T19:56:26.302Z,10.18
2022-11-01T19:59:00.428Z,11.30
2022-11-01T20:01:45.459Z,10.40
2022-11-01T20:04:29.176Z,12.18
2022-11-01T20:07:13.845Z,13.25
2022-11-01T20:09:43.398Z,11.85
2022-11-01T20:12:21.998Z,11.05
2022-11-01T20:14:52.365Z,12.55
2022-11-01T20:17:22.366Z,12.27
2022-11-01T20:19:53.761Z,12.32
2022-11-01T20:22:24.216Z,11.13
2022-11-01T20:24:54.194Z,10.85
2022-11-01T20:27:24.308Z,11.15
2022-11-01T20:29:54.333Z,11.52
2022-11-01T20:32:24.416Z,10.48
2022-11-01T20:34:54.467Z,10.00
2022-11-01T20:37:29.257Z,11.43
2022-11-01T20:39:57.771Z,9.15
2022-11-01T20:42:27.084Z,9.23
2022-11-01T20:44:56.809Z,9.13
2022-11-01T20:47:26.827Z,9.77
2022-11-01T20:49:56.982Z,9.73
2022-11-01T20:52:39.271Z,9.70
2022-11-01T20:55:13.247Z,9.75
2022-11-01T20:57:42.891Z,9.23
2022-11-01T21:00:15.980Z,10.10
2022-11-01T21:02:48.137Z,8.50
2022-11-01T21:05:25.648Z,9.93
2022-11-01T21:08:15.734Z,9.82
2022-11-01T21:10:45.824Z,9.77
2022-11-01T21:13:24.547Z,9.07
2022-11-01T21:15:59.528Z,9.38
2022-11-01T21:18:44.484Z,10.27
2022-11-01T21:21:14.324Z,7.88
2022-11-01T21:23:46.276Z,8.07
2022-11-01T21:26:22.870Z,7.70
2022-11-01T21:29:02.712Z,8.38
2022-11-01T21:31:39.037Z,8.35
2022-11-01T21:34:12.033Z,8.40
2022-11-01T21:36:52.414Z,7.47
2022-11-01T21:39:33.097Z,7.35
2022-11-01T21:42:30.401Z,7.88
2022-11-01T21:45:28.742Z,8.32
2022-11-01T21:48:16.588Z,9.10
2022-11-01T21:50:46.806Z,9.05
2022-11-01T21:53:16.867Z,8.20
2022-11-01T21:55:46.691Z,8.73
2022-11-01T21:58:16.501Z,8.52
2022-11-01T22:00:46.203Z,8.88
2022-11-01T22:03:16.091Z,8.20
2022-11-01T22:05:45.694Z,8.25
2022-11-01T22:08:15.400Z,8.85
2022-11-01T22:10:45.106Z,8.23
2022-11-01T22:13:15.242Z,7.03
2022-11-01T22:15:44.688Z,7.43
2022-11-01T22:18:14.374Z,8.48
2022-11-01T22:20:44.161Z,8.55
2022-11-01T22:23:13.868Z,8.38
2022-11-01T22:25:43.689Z,8.00
2022-11-01T22:28:13.672Z,7.93
2022-11-01T22:30:46.233Z,8.30
2022-11-01T22:33:16.172Z,7.50
2022-11-01T22:35:43.805Z,7.38
2022-11-01T22:38:25.504Z,8.00
2022-11-01T22:41:05.184Z,8.18
2022-11-01T22:43:39.075Z,7.80
2022-11-01T22:46:57.990Z,7.68
2022-11-01T22:49:43.348Z,7.70
2022-11-01T22:52:29.663Z,7.65
2022-11-01T22:55:11.127Z,8.60
2022-11-01T22:58:28.689Z,7.97
2022-11-01T23:01:02.426Z,7.70
2022-11-01T23:03:41.886Z,9.02
2022-11-01T23:06:35.058Z,10.20
2022-11-01T23:09:18.934Z,8.55
2022-11-01T23:12:15.675Z,8.02
2022-11-01T23:14:45.886Z,8.88
2022-11-01T23:17:26.466Z,8.45
2022-11-01T23:20:01.636Z,8.65
2022-11-01T23:22:36.700Z,8.45
2022-11-01T23:25:09.374Z,8.52
2022-11-01T23:27:45.000Z,8.48
2022-11-01T23:30:15.046Z,9.07
2022-11-01T23:32:45.068Z,8.27
2022-11-01T23:35:22.142Z,9.35
2022-11-01T23:37:58.162Z,9.68
2022-11-01T23:40:33.923Z,8.45
2022-11-01T23:43:02.568Z,8.88
2022-11-01T23:45:34.948Z,9.07
2022-11-01T23:48:05.129Z,8.30
2022-11-01T23:50:37.368Z,8.93
2022-11-01T23:53:15.682Z,8.68
2022-11-01T23:55:52.201Z,8.85
2022-11-01T23:58:33.165Z,8.73
